Date,TemperatureHighF,TemperatureAvgF,TemperatureLowF,DewpointHighF,DewpointAvgF,DewpointLowF,HumidityHigh,HumidityAvg,HumidityLow,PressureMaxIn,PressureMinIn,WindSpeedMaxMPH,WindSpeedAvgMPH,GustSpeedMaxMPH,PrecipitationSumIn
2013-1-1,36,31,19,25,18,5,66,57,45,29.92,29.74,23,4,27,0.00
2013-1-2,26,20,13,14,8,4,69,60,47,30.04,29.91,15,2,16,0.00
2013-1-3,17,11,7,4,-1,-4,61,57,54,30.14,30.09,12,3,12,0.00
2013-1-4,30,28,23,20,18,14,70,66,63,29.96,29.93,18,4,18,0.00
2013-1-6,36,35,35,26,25,25,67,67,66,29.95,29.92,11,2,11,0.01
2013-1-7,38,33,25,27,22,17,76,65,49,30.32,29.95,17,2,17,0.00
2013-1-8,44,35,25,28,24,18,76,66,51,30.34,30.23,11,1,13,0.00
2013-1-9,44,40,29,34,31,25,85,72,60,30.29,30.03,21,3,21,0.00
2013-1-10,44,39,31,32,22,18,71,52,40,30.48,30.09,22,4,22,0.00
2013-1-11,40,32,26,38,27,20,95,80,66,30.47,30.07,7,0,7,0.32
2013-1-12,43,40,38,42,39,36,97,96,94,30.10,30.03,4,0,4,0.05
2013-1-13,45,44,39,45,44,38,98,98,97,30.07,29.92,14,1,14,0.01
2013-1-14,45,38,34,45,31,23,98,75,63,30.22,29.92,10,2,10,0.02
2013-1-15,36,34,32,24,23,22,70,64,58,30.28,30.16,11,2,11,0.00
2013-1-16,32,32,32,22,22,21,65,65,64,30.16,30.16,1,0,1,0.00
2013-1-17,39,33,26,31,25,12,94,73,55,30.04,29.82,10,2,13,0.37
2013-1-18,26,22,17,12,4,-4,57,47,32,30.40,29.99,20,3,21,0.00
2013-1-19,43,36,22,27,21,7,66,54,46,30.32,29.82,12,2,12,0.07
2013-1-20,49,39,26,28,20,2,68,49,27,29.92,29.55,29,6,31,0.00
2013-1-21,27,24,19,20,11,3,85,60,40,30.02,29.73,17,2,17,0.00
2013-1-22,20,16,9,16,-1,-11,85,48,29,30.08,29.72,17,5,22,0.00
2013-1-23,16,10,4,-4,-8,-12,58,45,29,30.14,30.06,19,4,19,0.00
2013-1-24,20,10,2,-2,-7,-10,64,47,27,30.27,30.08,30,5,30,0.00
2013-1-25,20,14,8,10,0,-4,78,54,34,30.33,29.99,12,2,13,0.00
2013-1-26,23,16,9,10,4,-3,81,61,39,30.28,29.97,20,4,20,0.00
2013-1-27,31,20,11,8,1,-3,72,45,23,30.43,30.28,19,2,19,0.00
2013-1-28,31,25,19,30,18,-1,94,75,41,30.42,29.92,12,0,12,0.00
2013-1-29,36,34,31,34,32,30,95,94,92,30.09,29.92,10,0,11,0.19
2013-1-30,55,45,34,54,44,32,98,96,94,30.04,29.31,20,2,20,0.11
2013-1-31,58,43,27,57,31,8,98,66,31,29.63,28.93,37,8,37,0.62
2013-2-1,30,25,20,11,6,0,57,45,29,30.10,29.63,25,6,25,0.00
2013-2-2,29,22,16,16,8,1,84,56,30,30.20,29.99,14,2,17,0.00
2013-2-3,29,22,15,18,14,10,86,70,51,29.99,29.71,10,1,10,0.04
2013-2-4,28,23,19,17,8,1,83,54,32,29.89,29.71,20,4,20,0.00
2013-2-5,28,24,21,22,17,7,87,74,51,29.93,29.84,5,0,5,0.00
2013-2-6,37,29,23,25,17,-3,90,64,30,30.28,29.84,21,3,25,0.03
2013-2-7,23,22,22,-1,-2,-3,35,34,32,30.28,30.27,12,4,12,0.00
2013-2-8,29,27,22,27,22,12,92,82,56,30.28,29.58,25,3,25,0.00
2013-2-9,23,20,14,20,14,3,92,76,59,30.25,29.67,37,10,37,0.04
2013-2-10,36,23,12,7,0,-7,63,40,17,30.41,30.25,21,3,22,0.17
2013-2-11,42,34,22,40,31,8,96,87,53,30.28,29.59,17,1,17,0.12
2013-2-12,42,38,34,38,27,21,96,67,50,29.88,29.61,25,4,25,0.00
2013-2-13,42,34,27,28,21,18,84,59,42,29.86,29.63,13,1,13,0.00
2013-2-14,42,34,25,28,24,20,89,69,43,29.92,29.64,13,1,13,0.07
2013-2-15,50,40,31,32,28,25,85,65,40,29.93,29.82,15,1,15,0.00
2013-2-16,38,31,26,29,21,12,90,68,47,29.89,29.65,15,3,15,0.07
2013-2-17,28,21,14,13,1,-5,57,42,25,29.83,29.53,33,10,33,0.00
2013-2-18,32,24,12,6,2,-1,56,40,26,30.14,29.83,23,5,25,0.00
2013-2-19,43,32,24,36,19,6,89,58,40,30.14,29.72,13,1,13,0.07
2013-2-21,30,24,20,13,10,8,66,55,43,30.25,29.86,28,8,28,0.00
2013-2-22,37,28,18,25,18,11,79,67,49,30.35,30.22,14,1,14,0.00
2013-2-23,37,34,32,35,30,25,93,87,76,30.22,29.76,11,1,11,0.13
2013-2-24,40,35,31,37,30,22,95,84,61,29.88,29.66,20,4,20,0.00
2013-2-25,44,35,29,26,24,22,77,63,44,30.17,29.88,20,3,20,0.00
2013-2-26,42,34,27,29,24,22,85,69,46,30.25,29.92,15,1,15,0.07
2013-2-27,42,38,33,40,36,29,94,93,85,29.93,29.45,20,3,20,1.02
2013-2-28,46,39,34,39,34,31,95,83,58,29.55,29.46,13,1,13,0.02
2013-3-1,44,37,33,33,28,23,88,71,51,29.69,29.51,18,4,18,0.00
2013-3-2,37,32,27,24,22,20,77,67,57,29.69,29.61,19,5,19,0.00
2013-3-3,31,28,25,24,19,14,82,70,55,29.66,29.59,23,6,24,0.00
2013-3-4,39,30,25,21,18,16,73,61,47,29.80,29.65,28,7,29,0.00
2013-3-5,46,38,28,26,24,19,75,57,43,29.96,29.79,19,3,19,0.00
2013-3-6,40,37,34,35,29,24,89,73,61,29.94,29.86,24,4,24,0.02
2013-3-7,37,33,30,30,27,24,97,80,69,30.01,29.89,23,5,23,0.02
2013-3-8,36,32,28,29,27,23,93,83,67,30.13,29.91,16,5,18,0.12
2013-3-9,51,38,28,25,22,20,73,56,33,30.26,30.12,15,3,16,0.09
2013-3-10,52,38,26,31,28,22,89,68,41,30.33,30.22,10,1,10,0.00
2013-3-11,53,43,34,44,37,30,92,80,57,30.25,30.03,17,2,17,0.00
2013-3-12,53,49,39,52,47,37,96,93,87,30.04,29.60,18,4,20,0.87
2013-3-14,32,29,25,14,9,5,56,43,37,29.84,29.76,32,8,32,0.00
2013-3-15,40,32,22,29,16,5,75,53,33,29.87,29.64,20,4,21,0.00
2013-3-16,37,31,27,27,20,12,86,63,37,29.84,29.67,15,2,15,0.00
2013-3-17,36,29,22,25,11,4,85,51,26,30.26,29.82,20,4,20,0.00
2013-3-18,35,29,19,25,10,1,89,50,27,30.37,30.02,13,1,13,0.00
2013-3-19,38,32,28,34,29,24,93,89,80,30.04,29.61,17,2,17,0.35
2013-3-20,39,32,27,29,17,13,90,56,35,29.77,29.68,23,4,24,0.12
2013-3-21,37,31,27,21,14,6,71,51,28,29.76,29.55,14,2,16,0.00
2013-3-22,38,30,23,21,16,9,67,55,44,29.76,29.62,24,4,24,0.00
2013-3-23,43,35,30,22,18,11,69,50,28,29.82,29.69,34,6,34,0.00
2013-3-24,44,35,27,22,19,14,64,52,40,29.85,29.65,21,2,21,0.00
2013-3-25,45,38,31,26,23,21,68,56,42,29.68,29.39,18,2,18,0.00
2013-3-26,47,39,34,28,24,19,70,56,37,29.77,29.50,21,3,21,0.00
2013-3-27,51,40,29,26,21,17,64,47,27,29.86,29.76,19,3,21,0.00
2013-3-28,48,40,34,32,28,22,73,62,48,30.02,29.85,18,4,18,0.00
2013-3-29,54,44,36,31,27,24,68,52,34,30.05,29.96,18,4,18,0.00
2013-3-30,55,44,34,30,23,15,75,47,22,30.08,29.98,15,2,15,0.00
2013-3-31,55,43,29,39,26,17,88,53,30,30.06,29.61,19,2,19,0.09
2013-4-1,60,44,33,44,34,7,94,70,28,29.80,29.50,26,4,28,0.02
2013-4-2,39,33,28,15,10,5,55,39,24,29.96,29.79,27,6,29,0.00
2013-4-3,44,34,28,14,10,5,52,38,24,30.20,29.96,26,7,26,0.00
2013-4-4,54,39,27,29,17,9,69,43,21,30.30,30.01,12,2,13,0.00
2013-4-5,60,45,37,29,22,14,71,43,19,30.03,29.63,21,4,21,0.00
2013-4-6,48,39,29,21,10,2,59,32,15,30.24,29.88,23,4,23,0.00
2013-4-7,55,44,35,41,30,13,85,60,34,30.24,29.94,20,3,21,0.00
2013-4-8,68,54,40,41,38,32,92,60,28,30.01,29.90,13,2,14,0.00
2013-4-9,74,61,49,50,44,37,89,57,27,29.93,29.81,24,4,26,0.00
2013-4-10,54,53,53,51,51,51,92,92,91,29.78,29.75,6,1,6,0.19
2013-4-11,56,50,44,52,43,26,94,77,41,30.01,29.72,14,2,14,0.00
2013-4-12,44,39,36,37,34,30,92,84,60,30.01,29.68,14,2,15,0.46
2013-4-13,53,44,36,37,34,31,93,71,46,29.88,29.70,13,1,13,0.08
2013-4-14,50,45,38,34,28,22,67,51,35,30.16,29.87,25,3,25,0.00
2013-4-15,59,46,34,33,28,24,74,52,33,30.32,30.16,14,1,14,0.00
2013-4-16,65,57,48,51,48,42,89,74,54,30.28,30.03,16,2,17,0.03
2013-4-17,64,55,48,52,36,28,90,53,27,30.24,30.03,14,3,20,0.02
2013-4-18,60,51,44,46,36,26,84,58,35,30.30,30.05,18,2,18,0.00
2013-4-19,71,61,51,61,56,46,96,86,66,30.05,29.56,22,3,22,0.06
2013-4-20,62,49,39,60,33,20,94,60,28,30.22,29.56,25,5,25,0.28
2013-4-21,53,41,31,24,20,14,64,44,25,30.57,30.22,18,3,18,0.00
2013-4-22,57,44,34,34,29,20,78,57,28,30.62,30.45,16,2,18,0.00
2013-4-23,47,41,35,38,34,27,87,75,68,30.45,30.05,14,2,14,0.00
2013-4-24,73,53,40,48,42,37,89,70,38,30.05,29.75,14,2,14,0.00
2013-4-25,61,53,44,50,31,20,92,48,22,30.19,29.77,22,4,22,0.01
2013-4-26,62,51,37,35,28,24,61,42,26,30.35,30.19,16,2,16,0.00
2013-4-27,67,53,38,32,28,21,64,40,18,30.36,30.20,13,2,13,0.00
2013-4-28,70,55,41,44,34,27,81,48,30,30.24,30.13,14,1,14,0.00
2013-4-29,57,53,49,46,40,31,81,63,46,30.18,30.13,10,1,11,0.00
2013-4-30,69,57,49,42,32,20,74,43,18,30.26,30.15,10,1,11,0.00
2013-5-1,71,56,40,42,33,26,67,45,23,30.41,30.26,13,1,13,0.00
2013-5-2,77,60,43,44,39,35,83,51,23,30.39,30.22,12,1,12,0.00
2013-5-3,69,57,47,42,36,31,76,47,26,30.39,30.26,12,1,12,0.00
2013-5-4,73,56,43,47,41,36,90,63,28,30.30,30.14,14,1,15,0.00
2013-5-5,69,51,38,42,38,32,91,64,27,30.24,30.12,14,1,14,0.00
2013-5-6,73,55,41,50,44,37,93,69,41,30.21,30.06,10,1,10,0.00
2013-5-7,76,61,46,55,50,43,93,68,36,30.10,30.01,13,1,13,0.00
2013-5-8,65,60,56,62,57,52,94,90,81,30.05,29.92,14,1,14,0.39
2013-5-9,64,57,52,59,54,50,96,91,79,29.95,29.81,8,0,8,0.14
2013-5-10,77,64,50,58,52,48,96,70,38,29.92,29.81,13,1,13,0.00
2013-5-11,64,61,59,62,59,53,96,91,71,29.81,29.61,13,1,13,0.37
2013-5-12,66,58,48,58,44,22,96,66,24,29.82,29.56,23,3,23,0.02
2013-5-13,53,46,39,32,28,23,67,51,34,30.02,29.81,19,3,19,0.00
2013-5-14,58,47,36,32,28,20,76,50,26,30.04,29.94,13,2,15,0.00
2013-5-15,64,51,36,51,42,29,87,71,50,30.00,29.61,16,1,16,0.05
2013-5-16,80,66,49,54,43,34,95,53,19,29.75,29.62,21,2,21,0.00
2013-5-17,68,59,52,42,39,34,63,47,29,30.14,29.74,17,2,17,0.00
2013-5-18,69,56,44,49,43,36,79,62,42,30.24,30.14,11,1,12,0.00
2013-5-19,56,55,53,55,52,48,95,91,80,30.27,30.11,11,1,11,0.18
2013-5-20,79,66,55,65,60,54,96,82,57,30.11,29.87,10,1,11,0.00
2013-5-21,87,74,60,70,64,58,95,75,48,29.89,29.73,10,1,11,0.00
2013-5-22,78,66,57,69,62,54,96,87,72,29.85,29.75,12,1,12,0.61
2013-5-23,71,66,64,69,65,62,96,94,88,29.81,29.67,13,1,13,1.71
2013-5-24,64,54,44,63,53,42,99,94,83,29.84,29.57,17,2,17,0.24
2013-5-25,45,43,41,43,41,37,95,92,78,29.86,29.77,23,4,23,0.48
2013-5-26,58,50,43,40,38,36,78,64,44,30.10,29.80,25,4,26,0.01
2013-5-27,72,58,43,43,38,33,78,51,25,30.15,30.03,13,1,13,0.00
2013-5-28,69,56,46,56,47,39,95,75,38,30.15,30.07,7,0,7,0.11
2013-5-29,79,66,56,69,61,55,97,85,66,30.07,29.91,14,0,14,0.03
2013-5-30,88,76,63,69,64,61,94,69,42,30.03,29.96,14,1,14,0.00
2013-5-31,90,78,65,70,64,54,92,65,31,30.04,29.90,10,0,12,0.00
2013-6-1,73,71,69,62,61,60,75,70,67,29.92,29.89,4,0,4,0.00
2013-6-2,81,76,73,68,66,64,77,72,64,29.72,29.66,11,1,11,0.00
2013-6-3,76,69,60,67,62,46,95,78,60,29.82,29.70,11,1,11,0.54
2013-6-4,60,56,53,46,42,39,61,59,56,29.85,29.82,12,2,12,0.00
2013-6-6,69,60,50,56,52,46,93,76,57,30.09,29.97,12,1,12,0.16
2013-6-7,60,57,54,58,56,52,96,94,92,29.97,29.62,13,1,17,1.65
2013-6-8,74,63,53,63,56,52,96,82,62,29.98,29.55,13,2,14,0.36
2013-6-9,76,67,57,60,56,52,93,70,46,30.10,29.98,11,1,11,0.00
2013-6-10,71,62,58,63,58,55,95,88,75,30.10,29.81,13,1,13,1.11
2013-6-11,75,65,59,68,61,54,98,87,68,29.81,29.50,17,1,17,0.46
2013-6-12,71,64,58,54,52,48,77,64,48,29.78,29.57,17,3,18,0.00
2013-6-13,58,55,52,56,53,49,95,91,77,29.76,29.50,18,1,19,1.72
2013-6-14,71,58,50,61,53,49,96,84,58,29.79,29.51,13,1,13,0.41
2013-6-15,77,66,55,56,51,43,91,63,32,29.92,29.79,13,1,14,0.00
2013-6-16,76,66,53,61,55,48,91,69,46,29.91,29.67,16,1,16,0.00
2013-6-17,83,71,62,65,60,52,93,71,36,29.84,29.74,15,1,15,0.00
2013-6-18,80,66,59,68,60,56,92,82,60,29.84,29.73,13,0,15,0.13
2013-6-19,60,56,54,58,53,51,92,89,78,29.92,29.82,9,0,9,0.00
2013-6-22,82,72,61,63,58,53,81,63,47,30.17,30.04,9,1,10,0.00
2013-6-23,87,75,64,70,63,54,84,68,44,30.09,29.96,14,1,14,0.00
2013-6-24,89,76,67,73,68,61,94,78,53,29.98,29.84,20,1,20,1.56
2013-6-25,86,74,64,75,68,62,97,84,56,29.91,29.70,15,0,15,0.05
2013-6-26,79,74,69,71,68,66,90,82,71,29.75,29.66,11,0,11,0.01
2013-6-27,81,71,66,73,68,64,96,89,70,29.75,29.50,12,0,12,1.25
2013-6-28,81,74,69,72,69,66,96,85,63,29.50,29.37,14,1,14,0.31
2013-6-29,82,74,67,68,66,60,94,78,49,29.62,29.40,14,1,14,0.00
2013-6-30,81,74,70,73,70,67,94,87,72,29.84,29.62,12,1,13,0.00
2013-7-1,74,72,71,72,70,69,96,93,91,29.98,29.83,11,1,11,0.32
2013-7-2,82,75,71,73,71,70,96,89,72,30.09,29.98,10,1,11,0.02
2013-7-3,84,76,72,73,70,68,93,83,66,30.16,30.07,10,1,11,0.00
2013-7-4,86,80,74,75,72,70,94,79,62,30.15,30.05,9,1,9,0.00
2013-7-5,88,81,73,76,71,69,89,74,56,30.11,29.99,9,0,9,0.00
2013-7-6,88,81,74,73,70,68,89,71,53,30.03,29.93,14,1,14,0.00
2013-7-7,90,81,74,77,72,69,89,75,53,29.96,29.82,9,0,9,0.00
2013-7-8,86,78,71,71,67,62,84,69,55,29.94,29.85,9,1,10,0.00
2013-7-9,84,74,67,74,68,64,93,82,60,29.99,29.92,11,0,11,0.02
2013-7-10,81,75,71,77,72,69,94,90,78,29.93,29.71,10,0,10,1.23
2013-7-11,81,74,69,72,69,62,94,83,63,29.85,29.70,6,0,6,0.02
2013-7-12,80,72,66,67,62,57,81,71,61,30.06,29.84,14,1,14,0.02
2013-7-13,75,70,64,71,66,59,93,87,77,30.21,30.06,12,0,12,0.03
2013-7-14,87,79,73,75,72,70,95,81,61,30.24,30.14,6,0,6,0.00
2013-7-15,88,80,74,74,70,65,87,72,52,30.15,30.05,11,1,11,0.00
2013-7-16,88,80,70,71,67,63,82,66,46,30.12,30.05,11,1,11,0.00
2013-7-17,90,81,72,74,69,66,87,68,48,30.11,29.96,6,0,6,0.00
2013-7-18,91,82,75,76,72,68,84,71,53,29.97,29.86,7,0,10,0.00
2013-7-19,92,84,74,76,73,71,92,72,53,29.87,29.68,10,1,10,0.00
2013-7-20,88,81,74,75,71,65,83,72,53,29.76,29.62,11,1,12,0.05
2013-7-21,84,75,68,69,64,60,84,69,46,29.89,29.76,5,0,5,0.00
2013-7-22,80,71,66,72,66,63,94,85,72,29.90,29.87,7,0,7,0.00
2013-7-24,76,72,70,72,69,63,96,89,67,29.68,29.52,11,1,11,0.00
2013-7-27,80,70,59,66,61,57,96,75,49,29.98,29.90,11,0,11,0.00
2013-7-28,77,70,64,68,64,61,95,84,68,29.93,29.86,10,0,10,0.03
2013-7-29,82,73,67,68,63,52,96,73,47,30.01,29.88,11,1,13,0.01
2013-7-30,76,68,59,60,56,53,84,67,49,30.08,30.00,10,1,11,0.00
2013-7-31,78,69,60,63,58,54,90,71,46,30.08,29.97,6,0,6,0.00
2013-8-1,67,64,62,60,59,58,91,84,78,29.97,29.90,0,0,0,0.00
2013-8-2,79,71,64,66,62,56,96,76,48,29.81,29.71,11,1,11,0.02
2013-8-3,77,69,64,65,61,56,89,75,63,29.81,29.74,7,0,7,0.01
2013-8-4,76,65,57,62,56,50,91,73,49,29.88,29.76,15,1,15,0.01
2013-8-5,73,64,56,52,48,41,85,60,34,29.98,29.87,14,1,15,0.00
2013-8-6,78,65,52,59,54,47,89,68,45,30.06,29.98,10,0,10,0.00
2013-8-7,76,67,58,64,60,54,93,78,60,30.09,30.00,11,1,11,0.01
2013-8-8,80,73,69,71,68,64,95,86,70,30.00,29.93,12,1,14,0.00
2013-8-9,78,73,71,75,72,68,97,94,89,29.94,29.70,18,1,18,1.83
2013-8-10,79,71,62,69,61,54,95,72,44,29.98,29.79,13,1,15,0.00
2013-8-11,76,66,55,61,54,48,81,67,47,30.05,29.95,10,0,11,0.00
2013-8-12,80,70,61,64,59,54,93,71,44,29.96,29.85,5,0,6,0.00
2013-8-13,72,68,64,68,64,59,95,87,76,29.86,29.61,12,0,13,0.17
2013-8-14,70,63,56,62,52,48,92,70,49,29.95,29.66,17,2,20,0.01
2013-8-15,73,62,53,55,51,44,87,69,40,30.07,29.95,11,1,11,0.00
2013-8-16,76,64,53,59,54,49,93,71,42,30.13,30.05,6,0,6,0.00
2013-8-17,78,66,55,63,57,52,92,73,45,30.21,30.13,5,0,5,0.00
2013-8-18,75,66,59,66,60,56,93,81,59,30.20,30.05,3,0,3,0.00
2013-8-19,75,68,59,65,60,56,92,78,60,30.05,29.94,6,0,6,0.00
2013-8-20,80,71,62,66,61,57,93,73,48,30.05,29.96,9,1,9,0.00
2013-8-21,84,72,62,67,62,58,94,73,44,30.10,29.96,10,0,10,0.00
2013-8-22,77,70,64,72,67,61,96,88,75,29.98,29.79,7,0,7,0.40
2013-8-23,76,70,62,68,60,50,93,71,49,30.05,29.79,13,1,14,0.00
2013-8-24,76,65,54,59,52,47,82,64,42,30.28,30.05,9,0,9,0.00
2013-8-25,79,66,53,61,54,50,93,67,39,30.32,30.13,7,0,7,0.00
2013-8-26,75,68,63,68,62,54,93,80,64,30.14,29.84,5,0,5,0.15
2013-8-27,72,68,68,69,67,66,96,95,93,29.84,29.73,6,0,6,0.49
2013-9-2,70,70,70,67,67,67,92,92,92,29.70,29.68,1,0,2,0.05
2013-9-3,73,68,61,67,63,56,97,84,58,29.80,29.64,10,0,10,0.00
2013-9-4,77,66,56,59,56,52,94,71,46,29.90,29.79,12,1,12,0.00
2013-9-5,71,64,54,59,51,42,87,64,38,30.08,29.82,12,1,12,0.00
2013-9-6,67,56,46,48,43,39,85,64,39,30.19,30.05,10,1,10,0.00
2013-9-7,76,60,46,56,50,43,94,71,41,30.05,29.80,6,0,6,0.00
2013-9-8,74,66,55,62,53,43,77,64,36,30.02,29.73,17,1,17,0.00
2013-9-9,69,58,44,53,46,39,87,67,45,30.18,30.02,7,0,10,0.00
2013-9-10,78,69,60,72,65,53,96,88,78,30.10,29.97,12,0,12,0.32
2013-9-11,91,80,71,77,72,65,95,77,56,30.02,29.88,7,0,7,0.00
2013-9-12,83,73,68,74,68,65,94,85,71,29.89,29.60,12,0,12,0.52
2013-9-13,73,65,55,66,60,48,97,83,64,29.76,29.54,14,1,14,0.04
2013-9-14,64,55,49,51,47,44,85,74,58,30.05,29.75,15,1,15,0.00
2013-9-15,67,55,45,51,46,41,91,72,41,30.14,30.02,9,0,9,0.00
2013-9-16,67,58,50,56,51,44,94,79,60,30.19,29.96,16,1,16,0.01
2013-9-17,64,51,40,44,39,34,86,65,35,30.37,30.19,12,1,12,0.00
2013-9-18,70,55,41,50,44,39,93,70,40,30.29,30.11,9,0,9,0.00
2013-9-19,75,59,44,54,49,42,93,71,39,30.11,29.99,5,0,5,0.00
2013-9-20,78,62,47,60,52,45,94,74,37,30.03,29.92,6,0,7,0.00
2013-9-21,70,64,58,67,60,55,95,89,77,29.94,29.58,15,1,15,0.17
2013-9-22,67,60,51,65,52,40,96,77,56,29.83,29.55,15,2,15,1.01
2013-9-23,60,52,42,44,40,37,87,67,51,29.98,29.83,15,2,16,0.00
2013-9-24,67,53,40,45,41,36,89,66,39,29.98,29.79,14,2,14,0.00
2013-9-25,68,56,45,53,46,41,89,71,49,29.89,29.81,10,1,10,0.00
2013-9-26,66,58,52,52,50,47,91,76,55,30.04,29.88,10,0,11,0.00
2013-9-27,62,55,48,53,49,45,93,81,68,30.21,30.04,6,0,7,0.00
2013-9-28,72,58,46,56,50,44,95,76,46,30.27,30.17,9,0,9,0.00
2013-9-29,69,57,47,58,50,45,96,80,53,30.18,30.01,5,0,5,0.00
2013-9-30,70,57,46,54,49,43,94,76,48,30.03,29.90,7,0,7,0.01
2013-10-1,75,61,49,59,53,47,95,76,50,29.94,29.82,11,1,11,0.00
2013-10-2,77,64,50,63,57,48,95,77,54,29.93,29.83,14,1,14,0.00
2013-10-3,74,62,51,56,52,44,91,70,37,30.05,29.93,5,0,5,0.00
2013-10-4,79,64,56,66,58,53,94,82,64,29.99,29.90,7,0,7,0.00
2013-10-5,75,65,60,64,60,57,93,85,67,30.03,29.95,4,0,5,0.08
2013-10-6,65,60,58,62,59,57,98,96,90,30.07,29.99,11,0,12,1.32
2013-10-7,73,65,56,68,63,52,98,94,81,29.99,29.68,28,2,28,0.25
2013-10-8,63,54,48,52,43,38,90,68,43,30.28,29.87,16,1,16,0.00
2013-10-9,61,52,43,48,42,38,87,69,50,30.38,30.25,13,1,13,0.00
2013-10-10,60,53,46,53,47,41,90,81,74,30.26,30.06,7,0,8,0.00
2013-10-11,68,60,53,58,52,42,89,75,59,30.06,29.98,10,0,11,0.00
2013-10-12,71,59,50,56,48,42,81,69,52,30.22,30.04,15,1,15,0.00
2013-10-14,65,59,51,49,48,43,86,67,48,30.22,30.17,6,0,6,0.00
2013-10-15,71,57,49,56,48,37,95,73,40,30.19,30.06,10,0,10,0.00
2013-10-16,61,55,48,55,49,44,92,82,70,30.06,29.85,6,0,6,0.00
2013-10-17,74,64,57,60,57,53,95,81,51,29.85,29.59,12,1,14,0.01
2013-10-18,66,59,51,61,46,38,96,65,39,29.89,29.56,16,2,16,0.07
2013-10-19,64,53,42,50,42,36,88,67,38,29.92,29.66,16,1,16,0.07
2013-10-20,60,52,45,51,39,32,92,64,37,29.98,29.65,15,2,16,0.00
2013-10-21,64,51,38,44,38,34,92,65,34,30.08,29.90,10,1,10,0.00
2013-10-22,64,52,44,50,44,36,93,76,53,29.90,29.65,10,0,11,0.00
2013-10-23,52,43,36,38,34,28,89,70,42,29.74,29.54,13,0,13,0.00
2013-10-24,52,43,37,35,29,24,80,60,35,29.88,29.65,21,3,23,0.00
2013-10-25,49,42,37,31,29,26,74,61,46,30.13,29.88,17,2,17,0.00
2013-10-26,52,43,34,35,30,25,88,62,35,30.12,29.81,19,1,19,0.00
2013-10-27,54,48,42,34,30,26,64,51,35,30.03,29.75,17,2,17,0.00
2013-10-28,58,46,33,34,31,28,83,58,36,30.25,30.02,18,2,18,0.00
2013-10-29,50,42,36,29,26,23,66,55,39,30.37,30.25,9,1,9,0.00
2013-10-30,52,42,36,42,35,25,91,74,62,30.31,30.11,3,0,3,0.00
2013-10-31,60,50,38,58,48,36,97,93,89,30.17,29.73,12,1,12,0.22
2013-11-1,64,61,58,62,59,56,96,94,89,29.75,29.45,26,3,26,0.21
2013-11-2,65,53,44,48,43,40,90,71,44,29.70,29.52,14,1,14,0.02
2013-11-3,46,39,28,40,30,16,86,70,52,30.39,29.70,21,3,21,0.00
2013-11-4,44,34,25,18,15,9,68,48,25,30.61,30.39,11,1,12,0.00
2013-11-5,52,41,29,38,29,18,78,64,53,30.62,30.43,10,0,11,0.00
2013-11-6,57,49,38,49,42,35,92,77,59,30.43,29.99,12,1,12,0.00
2013-11-7,59,51,38,55,47,31,92,87,73,29.99,29.64,18,2,18,0.11
2013-11-8,46,39,34,31,27,24,75,63,45,30.09,29.81,20,3,20,0.00
2013-11-9,46,39,31,30,26,23,79,59,40,30.19,29.92,12,1,12,0.00
2013-11-10,57,45,42,39,33,27,78,62,42,29.93,29.70,20,3,23,0.01
2013-11-11,51,44,39,31,28,22,63,52,35,30.10,29.86,21,2,21,0.00
2013-11-12,48,33,26,34,22,15,88,66,49,30.20,29.84,21,3,23,0.04
2013-11-13,36,28,22,17,13,8,68,53,32,30.28,30.16,15,3,16,0.00
2013-11-14,51,39,28,18,16,12,64,40,21,30.16,30.04,14,2,14,0.00
2013-11-15,57,44,32,25,20,13,61,38,20,30.16,30.06,8,1,9,0.00
2013-11-16,59,48,40,42,34,22,89,59,28,30.25,30.14,10,1,10,0.00
2013-11-17,58,51,42,57,49,39,97,94,89,30.20,29.71,15,1,15,0.02
2013-11-18,63,57,46,59,40,23,97,58,30,29.72,29.48,23,5,24,0.24
2013-11-19,46,39,30,28,23,17,61,52,42,30.28,29.66,25,6,25,0.00
2013-11-20,42,31,25,17,15,9,64,52,27,30.56,30.28,17,2,18,0.00
2013-11-21,48,35,22,35,23,14,73,62,43,30.58,30.32,9,0,9,0.00
2013-11-22,50,46,42,48,42,34,96,87,73,30.32,29.79,11,0,11,0.14
2013-11-23,50,38,26,46,23,5,84,56,36,29.95,29.79,25,6,25,0.00
2013-11-24,26,22,20,12,4,2,54,47,38,30.25,29.87,28,7,28,0.00
2013-11-25,33,20,14,10,7,4,70,59,37,30.39,30.25,13,2,13,0.00
2013-11-29,26,24,22,15,13,11,64,62,60,30.67,30.62,13,2,13,0.00
2013-11-30,32,24,15,18,11,5,77,57,32,30.72,30.33,7,1,9,0.00
2013-12-1,45,36,29,34,28,18,81,72,63,30.32,29.95,10,0,10,0.00
2013-12-2,42,34,31,35,30,26,90,84,68,29.95,29.83,5,0,5,0.00
2013-12-3,46,36,27,36,30,25,94,82,60,29.94,29.81,10,1,10,0.01
2013-12-4,50,37,30,35,29,26,85,74,53,30.05,29.93,5,0,5,0.00
2013-12-6,40,36,32,32,32,30,92,85,74,30.08,29.97,12,2,12,0.44
2013-12-7,37,32,26,30,25,15,93,77,60,30.44,30.03,8,2,14,0.04
2013-12-8,29,26,21,20,17,14,78,69,61,30.54,30.36,9,0,9,0.00
2013-12-9,34,30,25,32,28,20,95,91,77,30.38,29.88,16,1,16,0.01
2013-12-10,34,30,24,32,27,15,95,86,67,30.00,29.76,14,2,14,0.00
2013-12-11,28,25,22,16,14,10,68,62,56,30.20,30.00,19,3,19,0.00
2013-12-12,25,20,15,14,7,2,72,58,44,30.26,30.04,15,3,15,0.00
2013-12-13,31,24,18,15,10,3,67,55,47,30.29,29.99,21,4,21,0.00
2013-12-14,21,17,13,17,11,8,89,76,61,30.47,29.86,21,2,21,0.00
2013-12-15,31,28,20,29,24,17,94,87,71,29.86,29.45,24,3,26,0.00
2013-12-16,28,23,15,21,9,3,77,54,41,30.15,29.71,36,3,36,0.00
2013-12-17,18,15,8,14,9,1,85,78,61,30.17,29.87,10,1,11,0.00
2013-12-18,32,25,18,21,17,14,84,73,60,30.06,29.86,13,2,13,0.00
2013-12-19,44,33,25,26,22,17,73,63,43,30.08,29.92,12,1,13,0.17
2013-12-20,50,40,31,32,28,25,81,64,44,30.03,29.88,9,0,10,0.19
2013-12-21,58,49,42,48,40,31,86,71,59,29.91,29.80,11,1,11,0.01
2013-12-22,54,54,52,52,51,48,92,90,86,29.82,29.74,15,2,15,0.01
2013-12-24,22,22,22,9,7,5,55,51,48,30.23,30.22,20,9,20,0.00
2013-12-25,23,19,14,10,4,1,64,53,41,30.45,30.23,21,3,21,0.00
2013-12-26,32,26,21,24,19,10,86,74,60,30.38,30.07,12,1,13,0.01
2013-12-27,36,30,24,22,19,14,81,64,45,30.26,30.16,20,2,20,0.01
2013-12-28,48,38,29,26,23,20,74,57,39,30.19,29.97,11,1,12,0.00
2013-12-29,40,38,34,38,31,25,94,77,56,29.98,29.38,23,2,23,0.80
2013-12-30,39,29,14,34,22,5,94,75,55,30.13,29.56,16,2,17,0.00
2013-12-31,26,19,12,19,10,4,78,66,49,30.17,29.98,20,2,20,0.00
2014-1-1,28,23,17,18,10,5,78,57,46,30.33,30.17,15,2,16,0.00
2014-1-2,24,18,9,18,13,4,81,79,76,30.24,29.67,17,2,19,0.00